createdAt,value
2018-11-12T00:00:43.864Z,14.55
2018-11-12T00:03:23.834Z,15.75
2018-11-12T00:06:03.149Z,14.45
2018-11-12T00:08:45.215Z,15.75
2018-11-12T00:11:25.508Z,14.58
2018-11-12T00:14:05.899Z,16.77
2018-11-12T00:16:44.187Z,15.05
2018-11-12T00:19:24.657Z,15.28
2018-11-12T00:22:04.019Z,15.40
2018-11-12T00:24:46.064Z,13.68
2018-11-12T00:27:26.030Z,13.30
2018-11-12T00:30:07.472Z,14.40
2018-11-12T00:32:47.988Z,13.20
2018-11-12T00:35:26.636Z,15.35
2018-11-12T00:38:05.720Z,13.50
2018-11-12T00:40:47.737Z,13.65
2018-11-12T00:43:27.475Z,13.50
2018-11-12T00:46:08.943Z,14.98
2018-11-12T00:48:48.188Z,14.30
2018-11-12T00:51:27.879Z,14.05
2018-11-12T00:54:06.634Z,14.28
2018-11-12T00:56:46.633Z,12.75
2018-11-12T00:59:26.635Z,15.43
2018-11-12T01:02:06.639Z,15.75
2018-11-12T01:04:45.809Z,12.82
2018-11-12T01:07:26.634Z,13.58
2018-11-12T01:10:05.944Z,13.05
2018-11-12T01:12:46.634Z,13.45
2018-11-12T01:15:26.326Z,13.00
2018-11-12T01:18:06.636Z,14.93
2018-11-12T01:20:46.634Z,13.20
2018-11-12T01:23:26.633Z,13.93
2018-11-12T01:26:05.967Z,13.43
2018-11-12T01:28:47.188Z,15.48
2018-11-12T01:31:24.700Z,12.82
2018-11-12T01:34:04.187Z,14.60
2018-11-12T01:36:43.531Z,12.78
2018-11-12T01:39:22.945Z,14.33
2018-11-12T01:42:01.527Z,13.35
2018-11-12T01:44:43.352Z,14.60
2018-11-12T01:47:22.646Z,15.50
2018-11-12T01:50:04.691Z,15.00
2018-11-12T01:52:43.457Z,15.32
2018-11-12T01:55:24.070Z,15.20
2018-11-12T01:58:02.491Z,17.23
2018-11-12T02:00:43.879Z,16.32
2018-11-12T02:03:24.045Z,14.58
2018-11-12T02:06:03.336Z,13.78
2018-11-12T02:08:42.234Z,14.35
2018-11-12T02:11:23.143Z,13.60
2018-11-12T02:14:01.816Z,15.30
2018-11-12T02:16:43.450Z,14.87
2018-11-12T02:19:24.193Z,13.75
2018-11-12T02:22:04.336Z,13.18
2018-11-12T02:24:42.678Z,14.03
2018-11-12T02:27:24.566Z,13.20
2018-11-12T02:30:03.664Z,14.18
2018-11-12T02:32:43.652Z,13.08
2018-11-12T02:35:22.242Z,15.30
2018-11-12T02:38:03.282Z,14.35
2018-11-12T02:40:43.223Z,13.68
2018-11-12T02:43:22.305Z,12.73
2018-11-12T02:46:02.606Z,14.53
2018-11-12T02:48:41.097Z,16.00
2018-11-12T02:51:21.340Z,14.35
2018-11-12T02:54:00.355Z,14.58
2018-11-12T02:56:40.672Z,14.05
2018-11-12T02:59:20.213Z,13.60
2018-11-12T03:01:59.779Z,14.70
2018-11-12T03:04:40.121Z,14.00
2018-11-12T03:07:20.402Z,15.75
2018-11-12T03:10:00.157Z,13.65
2018-11-12T03:12:40.042Z,16.02
2018-11-12T03:15:20.838Z,16.67
2018-11-12T03:18:00.901Z,15.60
2018-11-12T03:20:36.634Z,14.63
2018-11-12T03:23:14.008Z,16.07
2018-11-12T03:25:54.352Z,15.48
2018-11-12T03:28:33.866Z,15.30
2018-11-12T03:31:12.885Z,15.43
2018-11-12T03:33:52.402Z,16.35
2018-11-12T03:36:31.589Z,18.02
2018-11-12T03:39:11.685Z,16.60
2018-11-12T03:41:41.509Z,19.02
2018-11-12T03:44:13.416Z,16.62
2018-11-12T03:46:54.057Z,16.12
2018-11-12T03:49:31.736Z,15.60
2018-11-12T03:52:09.228Z,15.05
2018-11-12T03:54:49.481Z,16.70
2018-11-12T03:57:27.821Z,13.75
2018-11-12T04:00:04.742Z,14.35
2018-11-12T04:02:45.191Z,13.90
2018-11-12T04:05:24.624Z,14.45
2018-11-12T04:08:05.691Z,16.20
2018-11-12T04:10:46.072Z,15.30
2018-11-12T04:13:26.634Z,13.20
2018-11-12T04:16:06.536Z,14.70
2018-11-12T04:18:46.634Z,13.90
2018-11-12T04:21:26.634Z,15.10
2018-11-12T04:24:01.342Z,14.75
2018-11-12T04:26:41.081Z,13.75
2018-11-12T04:29:20.646Z,14.43
2018-11-12T04:31:59.667Z,15.85
2018-11-12T04:34:38.779Z,14.10
2018-11-12T04:37:18.197Z,13.98
2018-11-12T04:39:58.112Z,15.10
2018-11-12T04:42:36.633Z,15.10
2018-11-12T04:45:13.611Z,14.13
2018-11-12T04:47:53.835Z,13.85
2018-11-12T04:50:35.559Z,14.07
2018-11-12T04:53:15.193Z,16.25
2018-11-12T04:55:54.587Z,16.77
2018-11-12T04:58:32.774Z,14.83
2018-11-12T05:01:13.241Z,14.07
2018-11-12T05:03:52.339Z,13.70
2018-11-12T05:06:30.906Z,13.90
2018-11-12T05:09:10.943Z,14.70
2018-11-12T05:11:52.010Z,15.03
2018-11-12T05:14:31.344Z,14.50
2018-11-12T05:17:10.399Z,15.15
2018-11-12T05:19:51.278Z,14.78
2018-11-12T05:22:33.052Z,15.18
2018-11-12T05:25:12.795Z,13.53
2018-11-12T05:27:52.535Z,16.07
2018-11-12T05:30:34.871Z,14.43
2018-11-12T05:33:14.540Z,14.45
2018-11-12T05:35:53.733Z,12.58
2018-11-12T05:38:33.347Z,14.50
2018-11-12T05:41:14.064Z,12.55
2018-11-12T05:43:53.257Z,14.15
2018-11-12T05:46:33.997Z,15.13
2018-11-12T05:49:14.212Z,35.38
2018-11-12T05:51:53.580Z,26.60
2018-11-12T05:54:35.298Z,13.72
2018-11-12T05:57:14.763Z,13.53
2018-11-12T05:59:55.106Z,11.95
2018-11-12T06:02:35.722Z,11.33
2018-11-12T06:05:16.633Z,10.98
2018-11-12T06:07:58.651Z,11.88
2018-11-12T06:10:37.842Z,12.25
2018-11-12T06:13:17.437Z,10.70
2018-11-12T06:15:56.632Z,12.45
2018-11-12T06:18:39.691Z,13.25
2018-11-12T06:21:20.632Z,14.55
2018-11-12T06:24:00.400Z,13.78
2018-11-12T06:26:38.367Z,15.43
2018-11-12T06:29:18.818Z,14.35
2018-11-12T06:31:57.554Z,14.63
2018-11-12T06:34:35.084Z,11.25
2018-11-12T06:37:14.561Z,12.33
2018-11-12T06:39:48.198Z,13.95
2018-11-12T06:42:29.257Z,15.15
2018-11-12T06:45:08.783Z,12.60
2018-11-12T06:47:48.323Z,13.45
2018-11-12T06:50:28.386Z,14.87
2018-11-12T06:53:14.772Z,12.95
2018-11-12T06:55:54.324Z,12.28
2018-11-12T06:58:34.372Z,15.13
2018-11-12T07:01:13.629Z,12.85
2018-11-12T07:03:55.248Z,12.35
2018-11-12T07:06:34.539Z,12.95
2018-11-12T07:09:15.429Z,11.95
2018-11-12T07:11:53.822Z,11.50
2018-11-12T07:14:32.337Z,11.12
2018-11-12T07:17:12.077Z,11.83
2018-11-12T07:19:51.796Z,8.15
2018-11-12T07:22:33.362Z,13.68
2018-11-12T07:25:14.100Z,10.60
2018-11-12T07:27:54.619Z,10.85
2018-11-12T07:30:34.442Z,10.03
2018-11-12T07:33:14.202Z,10.58
2018-11-12T07:35:53.569Z,10.38
2018-11-12T07:38:34.086Z,10.85
2018-11-12T07:41:12.877Z,10.38
2018-11-12T07:43:52.340Z,11.57
2018-11-12T07:46:31.458Z,10.00
2018-11-12T07:49:10.927Z,8.55
2018-11-12T07:51:51.193Z,9.10
2018-11-12T07:54:30.752Z,7.70
2018-11-12T07:57:14.651Z,8.55
2018-11-12T07:59:54.738Z,9.18
2018-11-12T08:02:33.748Z,8.50
2018-11-12T08:05:14.074Z,8.93
2018-11-12T08:07:54.165Z,8.78
2018-11-12T08:10:34.758Z,7.95
2018-11-12T08:13:16.600Z,8.88
2018-11-12T08:15:56.636Z,8.38
2018-11-12T08:18:36.282Z,8.20
2018-11-12T08:21:16.071Z,8.53
2018-11-12T08:23:56.687Z,10.60
2018-11-12T08:26:36.429Z,15.72
2018-11-12T08:29:16.635Z,8.40
2018-11-12T08:31:56.634Z,7.25
2018-11-12T08:34:35.531Z,8.10
2018-11-12T08:37:18.219Z,8.48
2018-11-12T08:39:56.743Z,7.28
2018-11-12T08:42:36.481Z,7.08
2018-11-12T08:45:13.225Z,7.40
2018-11-12T08:47:53.989Z,7.55
2018-11-12T08:50:34.030Z,7.80
2018-11-12T08:53:13.897Z,7.97
2018-11-12T08:55:53.512Z,7.12
2018-11-12T08:58:33.747Z,7.70
2018-11-12T09:01:13.091Z,7.50
2018-11-12T09:03:52.512Z,7.10
2018-11-12T09:06:32.678Z,6.60
2018-11-12T09:09:12.499Z,7.30
2018-11-12T09:11:52.363Z,6.47
2018-11-12T09:14:31.478Z,7.35
2018-11-12T09:17:14.644Z,7.00
2018-11-12T09:19:53.262Z,6.12
2018-11-12T09:22:32.979Z,5.87
2018-11-12T09:25:12.923Z,7.92
2018-11-12T09:27:52.912Z,7.10
2018-11-12T09:30:33.449Z,5.97
2018-11-12T09:33:12.544Z,6.83
2018-11-12T09:35:51.900Z,7.33
2018-11-12T09:38:32.064Z,6.70
2018-11-12T09:41:13.847Z,6.40
2018-11-12T09:43:52.160Z,8.00
2018-11-12T09:46:33.074Z,6.50
2018-11-12T09:49:14.154Z,7.42
2018-11-12T09:51:55.588Z,6.87
2018-11-12T09:54:35.062Z,5.83
2018-11-12T09:57:14.743Z,7.40
2018-11-12T09:59:52.691Z,6.33
2018-11-12T10:02:33.880Z,6.90
2018-11-12T10:05:13.416Z,6.10
2018-11-12T10:07:55.908Z,7.08
2018-11-12T10:10:37.542Z,6.90
2018-11-12T10:13:18.720Z,7.28
2018-11-12T10:15:57.213Z,6.12
2018-11-12T10:18:35.901Z,6.45
2018-11-12T10:21:13.314Z,6.53
2018-11-12T10:23:53.532Z,6.65
2018-11-12T10:26:34.724Z,7.75
2018-11-12T10:29:15.799Z,6.75
2018-11-12T10:31:56.108Z,6.92
2018-11-12T10:34:36.632Z,7.40
2018-11-12T10:37:16.633Z,8.00
2018-11-12T10:39:56.336Z,7.83
2018-11-12T10:42:35.208Z,8.00
2018-11-12T10:45:16.339Z,8.45
2018-11-12T10:47:58.436Z,7.50
2018-11-12T10:50:36.346Z,8.00
2018-11-12T10:53:16.489Z,7.75
2018-11-12T10:55:54.082Z,8.63
2018-11-12T10:58:32.902Z,7.65
2018-11-12T11:01:16.288Z,7.55
2018-11-12T11:04:02.628Z,7.37
2018-11-12T11:06:43.122Z,7.28
2018-11-12T11:09:22.665Z,8.13
2018-11-12T11:12:03.743Z,8.50
2018-11-12T11:14:43.749Z,7.00
2018-11-12T11:17:23.537Z,7.97
2018-11-12T11:20:04.180Z,7.12
2018-11-12T11:22:45.747Z,6.53
2018-11-12T11:25:24.315Z,6.72
2018-11-12T11:28:03.905Z,6.50
2018-11-12T11:30:42.512Z,7.33
2018-11-12T11:33:24.563Z,6.35
2018-11-12T11:36:03.829Z,5.65
2018-11-12T11:38:43.321Z,6.05
2018-11-12T11:41:22.211Z,6.65
2018-11-12T11:44:03.331Z,7.65
2018-11-12T11:46:42.884Z,6.42
2018-11-12T11:49:22.540Z,6.37
2018-11-12T11:52:02.405Z,5.85
2018-11-12T11:54:42.948Z,5.78
2018-11-12T11:57:21.509Z,5.90
2018-11-12T12:00:00.934Z,5.22
2018-11-12T12:02:40.904Z,6.25
2018-11-12T12:05:20.411Z,5.83
2018-11-12T12:08:00.156Z,6.00
2018-11-12T12:10:39.899Z,5.83
2018-11-12T12:13:20.283Z,5.00
2018-11-12T12:15:59.314Z,5.90
2018-11-12T12:18:38.791Z,6.25
2018-11-12T12:21:18.990Z,4.80
2018-11-12T12:23:57.684Z,6.40
2018-11-12T12:26:37.550Z,4.97
2018-11-12T12:29:16.632Z,4.95
2018-11-12T12:31:56.633Z,5.87
2018-11-12T12:34:36.231Z,4.87
2018-11-12T12:37:16.467Z,5.33
2018-11-12T12:39:55.855Z,5.35
2018-11-12T12:42:36.377Z,5.87
2018-11-12T12:45:13.784Z,7.17
2018-11-12T12:47:53.281Z,8.15
2018-11-12T12:50:33.426Z,6.17
2018-11-12T12:53:06.089Z,6.83
2018-11-12T12:55:46.807Z,5.78
2018-11-12T12:58:19.979Z,6.50
2018-11-12T13:00:49.171Z,6.95
2018-11-12T13:03:17.324Z,6.62
2018-11-12T13:05:47.715Z,5.60
2018-11-12T13:08:18.045Z,6.35
2018-11-12T13:10:47.407Z,5.75
2018-11-12T13:13:16.508Z,6.55
2018-11-12T13:15:46.785Z,6.08
2018-11-12T13:18:19.360Z,6.50
2018-11-12T13:20:49.137Z,6.00
2018-11-12T13:23:24.428Z,7.90
2018-11-12T13:25:54.658Z,6.65
2018-11-12T13:31:05.262Z,6.37
2018-11-12T13:33:34.478Z,6.95
2018-11-12T13:36:06.826Z,7.30
2018-11-12T13:38:43.075Z,6.33
2018-11-12T13:41:14.670Z,6.83
2018-11-12T13:43:52.975Z,9.88
2018-11-12T13:46:22.015Z,6.25
2018-11-12T13:48:51.406Z,8.95
2018-11-12T13:51:25.251Z,5.47
2018-11-12T13:53:58.258Z,6.80
2018-11-12T13:56:30.954Z,5.60
2018-11-12T13:59:06.315Z,5.28
2018-11-12T14:01:35.897Z,6.10
2018-11-12T14:04:05.725Z,7.33
2018-11-12T14:06:37.852Z,6.17
2018-11-12T14:09:16.635Z,6.85
2018-11-12T14:11:52.845Z,5.35
2018-11-12T14:14:29.813Z,5.47
2018-11-12T14:17:01.226Z,12.58
2018-11-12T14:19:35.264Z,6.97
2018-11-12T14:22:04.728Z,7.67
2018-11-12T14:24:34.805Z,9.93
2018-11-12T14:27:10.220Z,6.05
2018-11-12T14:29:49.794Z,5.75
2018-11-12T14:32:29.982Z,38.30
2018-11-12T14:35:10.052Z,11.40
2018-11-12T14:37:51.714Z,6.70
2018-11-12T14:40:31.011Z,5.65
2018-11-12T14:43:11.328Z,8.75
2018-11-12T14:45:51.816Z,6.83
2018-11-12T14:48:31.560Z,7.72
2018-11-12T14:51:09.575Z,5.72
2018-11-12T14:53:50.444Z,25.68
2018-11-12T14:56:30.362Z,8.03
2018-11-12T14:59:11.424Z,20.52
2018-11-12T15:01:53.804Z,10.28
2018-11-12T15:04:33.361Z,9.83
2018-11-12T15:07:13.077Z,15.60
2018-11-12T15:09:54.068Z,18.05
2018-11-12T15:12:35.832Z,7.70
2018-11-12T15:15:16.474Z,10.70
2018-11-12T15:17:55.542Z,7.20
2018-11-12T15:20:23.282Z,7.30
2018-11-12T15:23:02.027Z,6.75
2018-11-12T15:25:39.421Z,12.58
2018-11-12T15:28:15.038Z,8.98
2018-11-12T15:30:55.974Z,5.05
2018-11-12T15:33:34.740Z,5.67
2018-11-12T15:36:09.810Z,9.75
2018-11-12T15:38:53.926Z,7.78
2018-11-12T15:41:33.768Z,5.37
2018-11-12T15:44:03.808Z,14.18
2018-11-12T15:46:40.423Z,8.93
2018-11-12T15:49:18.516Z,5.20
2018-11-12T15:51:52.508Z,26.35
2018-11-12T15:54:32.001Z,25.50
2018-11-12T15:57:15.879Z,6.80
2018-11-12T15:59:55.958Z,18.98
2018-11-12T16:02:35.785Z,14.38
2018-11-12T16:05:16.642Z,19.57
2018-11-12T16:07:55.752Z,7.53
2018-11-12T16:10:33.552Z,6.35
2018-11-12T16:13:12.643Z,8.95
2018-11-12T16:15:53.235Z,10.15
2018-11-12T16:18:33.373Z,8.80
2018-11-12T16:21:13.672Z,7.87
2018-11-12T16:23:51.434Z,6.92
2018-11-12T16:26:31.369Z,12.25
2018-11-12T16:29:11.290Z,24.15
2018-11-12T16:31:51.285Z,13.78
2018-11-12T16:34:30.950Z,15.45
2018-11-12T16:37:12.167Z,12.43
2018-11-12T16:39:53.007Z,7.80
2018-11-12T16:42:32.747Z,8.15
2018-11-12T16:45:12.766Z,8.13
2018-11-12T16:47:42.504Z,16.27
2018-11-12T16:50:11.506Z,6.40
2018-11-12T16:52:49.391Z,6.83
2018-11-12T16:55:27.600Z,10.03
2018-11-12T16:58:06.248Z,7.17
2018-11-12T17:00:42.406Z,5.92
2018-11-12T17:03:22.784Z,4.65
2018-11-12T17:05:56.472Z,6.00
2018-11-12T17:08:36.566Z,9.35
2018-11-12T17:11:06.206Z,5.78
2018-11-12T17:13:42.819Z,8.30
2018-11-12T17:16:22.288Z,5.70
2018-11-12T17:19:02.281Z,7.60
2018-11-12T17:21:39.928Z,8.78
2018-11-12T17:24:21.246Z,8.95
2018-11-12T17:26:57.430Z,6.17
2018-11-12T17:29:37.447Z,6.97
2018-11-12T17:32:05.749Z,6.83
2018-11-12T17:34:41.172Z,6.30
2018-11-12T17:37:13.640Z,10.43
2018-11-12T17:39:52.368Z,7.42
2018-11-12T17:42:29.031Z,6.70
2018-11-12T17:45:02.478Z,7.25
2018-11-12T17:47:40.348Z,6.72
2018-11-12T17:50:16.643Z,7.42
2018-11-12T17:52:56.106Z,7.67
2018-11-12T17:55:29.511Z,7.90
2018-11-12T17:58:08.236Z,7.85
2018-11-12T18:00:38.867Z,8.63
2018-11-12T18:03:16.644Z,8.93
2018-11-12T18:05:54.546Z,9.40
2018-11-12T18:08:29.601Z,7.97
2018-11-12T18:11:07.718Z,7.97
2018-11-12T18:13:47.828Z,7.97
2018-11-12T18:16:27.975Z,7.62
2018-11-12T18:19:06.644Z,7.70
2018-11-12T18:21:45.482Z,6.58
2018-11-12T18:24:25.248Z,8.45
2018-11-12T18:27:01.097Z,8.10
2018-11-12T18:29:41.097Z,9.75
2018-11-12T18:32:19.945Z,9.18
2018-11-12T18:35:00.574Z,8.98
2018-11-12T18:37:40.359Z,7.60
2018-11-12T18:40:21.145Z,7.10
2018-11-12T18:43:03.165Z,9.95
2018-11-12T18:45:44.882Z,8.33
2018-11-12T18:48:26.648Z,8.15
2018-11-12T18:51:06.648Z,9.00
2018-11-12T18:53:46.649Z,8.70
2018-11-12T18:56:25.596Z,20.27
2018-11-12T18:59:09.006Z,18.32
2018-11-12T19:01:48.453Z,8.10
2018-11-12T19:04:24.946Z,8.25
2018-11-12T19:07:00.265Z,14.13
2018-11-12T19:09:36.231Z,9.58
2018-11-12T19:12:16.649Z,11.10
2018-11-12T19:14:56.136Z,7.90
2018-11-12T19:17:36.279Z,11.68
2018-11-12T19:20:16.244Z,9.65
2018-11-12T19:22:56.036Z,9.85
2018-11-12T19:25:35.803Z,12.33
2018-11-12T19:28:18.899Z,15.05
2018-11-12T19:30:57.962Z,9.10
2018-11-12T19:33:36.649Z,10.55
2018-11-12T19:36:16.650Z,13.75
2018-11-12T19:38:56.649Z,16.50
2018-11-12T19:41:36.650Z,11.75
2018-11-12T19:44:16.492Z,9.60
2018-11-12T19:46:54.786Z,11.80
2018-11-12T19:49:33.228Z,11.05
2018-11-12T19:52:12.268Z,11.00
2018-11-12T19:54:51.587Z,13.53
2018-11-12T19:57:30.772Z,11.12
2018-11-12T20:00:10.492Z,15.10
2018-11-12T20:02:50.589Z,10.65
2018-11-12T20:05:30.690Z,10.38
2018-11-12T20:08:11.155Z,9.45
2018-11-12T20:10:51.661Z,10.78
2018-11-12T20:13:32.499Z,9.70
2018-11-12T20:16:12.270Z,8.88
2018-11-12T20:18:56.651Z,9.73
2018-11-12T20:21:35.751Z,10.32
2018-11-12T20:24:15.893Z,9.70
2018-11-12T20:26:56.533Z,9.93
2018-11-12T20:29:36.351Z,10.95
2018-11-12T20:32:16.653Z,10.95
2018-11-12T20:34:56.652Z,10.85
2018-11-12T20:37:36.652Z,10.85
2018-11-12T20:40:16.653Z,9.63
2018-11-12T20:42:57.560Z,10.58
2018-11-12T20:45:37.547Z,10.30
2018-11-12T20:48:14.524Z,10.60
2018-11-12T20:50:53.939Z,10.43
2018-11-12T20:53:28.900Z,9.50
2018-11-12T20:56:08.920Z,11.08
2018-11-12T20:58:46.658Z,9.00
2018-11-12T21:01:25.995Z,10.68
2018-11-12T21:04:05.841Z,9.98
2018-11-12T21:06:44.682Z,10.53
2018-11-12T21:09:22.822Z,10.48
2018-11-12T21:12:01.662Z,10.38
2018-11-12T21:14:41.307Z,11.10
2018-11-12T21:17:20.048Z,11.08
2018-11-12T21:20:04.140Z,10.40
2018-11-12T21:22:39.605Z,11.12
2018-11-12T21:25:19.845Z,10.65
2018-11-12T21:27:59.138Z,10.43
2018-11-12T21:30:38.770Z,10.35
2018-11-12T21:33:20.396Z,10.93
2018-11-12T21:36:00.463Z,10.85
2018-11-12T21:38:38.932Z,9.90
2018-11-12T21:41:21.849Z,10.68
2018-11-12T21:44:01.590Z,10.70
2018-11-12T21:46:34.585Z,11.70
2018-11-12T21:49:07.643Z,9.95
2018-11-12T21:51:43.560Z,10.90
2018-11-12T21:54:24.206Z,9.60
2018-11-12T21:57:02.018Z,11.22
2018-11-12T21:59:43.244Z,11.28
2018-11-12T22:02:23.929Z,10.72
2018-11-12T22:05:04.043Z,10.95
2018-11-12T22:07:34.702Z,10.38
2018-11-12T22:10:02.930Z,9.88
2018-11-12T22:12:31.461Z,11.78
2018-11-12T22:15:01.410Z,11.45
2018-11-12T22:17:31.328Z,10.82
2018-11-12T22:20:01.739Z,10.48
2018-11-12T22:22:34.509Z,10.43
2018-11-12T22:25:08.724Z,10.43
2018-11-12T22:27:37.541Z,10.70
2018-11-12T22:30:09.747Z,10.60
2018-11-12T22:32:39.022Z,10.03
2018-11-12T22:35:09.555Z,10.18
2018-11-12T22:37:40.995Z,11.48
2018-11-12T22:40:12.881Z,11.03
2018-11-12T22:42:41.782Z,11.20
2018-11-12T22:45:22.188Z,9.05
2018-11-12T22:48:03.503Z,9.73
2018-11-12T22:50:44.072Z,11.00
2018-11-12T22:53:18.134Z,9.43
2018-11-12T22:55:57.154Z,10.10
2018-11-12T22:58:36.669Z,10.40
2018-11-12T23:01:16.537Z,11.48
2018-11-12T23:03:55.355Z,11.10
2018-11-12T23:06:33.541Z,9.98
2018-11-12T23:09:08.010Z,9.83
2018-11-12T23:11:48.579Z,11.20
2018-11-12T23:14:25.396Z,10.32
2018-11-12T23:17:07.262Z,9.98
2018-11-12T23:19:47.688Z,10.23
2018-11-12T23:22:27.718Z,11.00
2018-11-12T23:25:07.210Z,10.35
2018-11-12T23:27:47.576Z,11.43
2018-11-12T23:30:29.143Z,10.13
2018-11-12T23:33:10.586Z,9.88
2018-11-12T23:35:52.001Z,9.88
2018-11-12T23:38:33.042Z,9.70
2018-11-12T23:41:11.437Z,10.03
2018-11-12T23:43:51.003Z,10.85
2018-11-12T23:46:29.660Z,10.53
2018-11-12T23:49:12.609Z,10.65
2018-11-12T23:51:50.849Z,10.75
2018-11-12T23:54:29.191Z,11.83
2018-11-12T23:57:08.311Z,10.78
2018-11-12T23:59:49.365Z,10.75
